KLFT

Lafayette Regional / Paul Fournet Field Airport

Lafayette, Louisiana, USA
METAR KLFT 202026Z 10008KT 050V120 1/4SM +TSRA BKN019 OVC036 25/22 A2999 RMK AO2 LTG DSNT W AND NW RAB00 TSB03 P0102 T02500217
Observed Flight Rules
Aug-20 @ 20:26 UTC (5 minutes ago) Instrument Flight Rules
Wind Visibility Clouds Conditions
100° at 8 knots 1/4 miles
  • Broken at 1,900' AGL
  • Overcast at 3,600' AGL
  • Heavy Thunderstorm
  • Heavy Rain
Temperatures Readings Precipitation
Current 25°C / 77°F
Dewpoint 22°C / 72°F
Humidity 83%
Altimeter 29.99" Hg
Pressure 1016 hPa
Elevation 11
Current Rain 1.02
METAR KLFT 202026Z 10008KT 050V120 1/4SM +TSRA BKN019 OVC036 25/22 A2999 RMK AO2 LTG DSNT W AND NW RAB00 TSB03 P0102 T02500217
Observed Flight Rules
Aug-20 @ 20:26 UTC
(5 minutes ago)
LIFR
Wind Visibility
100° at 8 knots 1/4 miles
Clouds
  • Broken at 1,900' AGL
  • Overcast at 3,600' AGL
Conditions
  • Heavy Thunderstorm
  • Heavy Rain
Temperature Dewpoint
25°C / 77°F 22°C / 72°F
Humidity Altimeter Pressure
83% 29.99" Hg 1016 hPa
Current Rain
1.02